sensor_id;sensor_type;location;lat;lon;timestamp;P1;durP1;ratioP1;P2;durP2;ratioP2
4553;SDS011;2289;48.316;15.174;2023-12-07T00:01:55;7.50;;;6.57;;
4553;SDS011;2289;48.316;15.174;2023-12-07T00:04:42;6.93;;;6.23;;
4553;SDS011;2289;48.316;15.174;2023-12-07T00:07:30;8.43;;;6.57;;
4553;SDS011;2289;48.316;15.174;2023-12-07T00:10:18;8.37;;;7.10;;
4553;SDS011;2289;48.316;15.174;2023-12-07T00:13:05;6.87;;;6.17;;
4553;SDS011;2289;48.316;15.174;2023-12-07T00:15:53;6.93;;;6.13;;
4553;SDS011;2289;48.316;15.174;2023-12-07T00:18:40;7.47;;;6.67;;
4553;SDS011;2289;48.316;15.174;2023-12-07T00:21:28;8.13;;;6.30;;
4553;SDS011;2289;48.316;15.174;2023-12-07T00:24:15;8.73;;;7.10;;
4553;SDS011;2289;48.316;15.174;2023-12-07T00:27:04;7.60;;;6.77;;
4553;SDS011;2289;48.316;15.174;2023-12-07T00:29:52;8.43;;;6.67;;
4553;SDS011;2289;48.316;15.174;2023-12-07T00:32:39;11.83;;;7.87;;
4553;SDS011;2289;48.316;15.174;2023-12-07T00:35:29;8.90;;;7.40;;
4553;SDS011;2289;48.316;15.174;2023-12-07T00:38:17;7.50;;;6.67;;
4553;SDS011;2289;48.316;15.174;2023-12-07T00:41:09;8.13;;;6.77;;
4553;SDS011;2289;48.316;15.174;2023-12-07T00:43:58;9.00;;;7.00;;
4553;SDS011;2289;48.316;15.174;2023-12-07T00:46:44;7.97;;;7.27;;
4553;SDS011;2289;48.316;15.174;2023-12-07T00:49:31;10.97;;;8.23;;
4553;SDS011;2289;48.316;15.174;2023-12-07T00:52:19;8.17;;;7.13;;
4553;SDS011;2289;48.316;15.174;2023-12-07T00:55:07;9.90;;;7.50;;
4553;SDS011;2289;48.316;15.174;2023-12-07T00:57:56;9.27;;;7.53;;
4553;SDS011;2289;48.316;15.174;2023-12-07T01:00:47;9.53;;;8.53;;
4553;SDS011;2289;48.316;15.174;2023-12-07T01:03:35;8.13;;;6.60;;
4553;SDS011;2289;48.316;15.174;2023-12-07T01:06:22;9.70;;;7.67;;
4553;SDS011;2289;48.316;15.174;2023-12-07T01:09:10;9.23;;;7.07;;
4553;SDS011;2289;48.316;15.174;2023-12-07T01:11:58;8.60;;;7.00;;
4553;SDS011;2289;48.316;15.174;2023-12-07T01:14:48;9.83;;;7.33;;
4553;SDS011;2289;48.316;15.174;2023-12-07T01:17:38;8.27;;;7.37;;
4553;SDS011;2289;48.316;15.174;2023-12-07T01:20:26;11.10;;;7.70;;
4553;SDS011;2289;48.316;15.174;2023-12-07T01:23:13;7.67;;;6.83;;
4553;SDS011;2289;48.316;15.174;2023-12-07T01:26:01;9.53;;;7.30;;
4553;SDS011;2289;48.316;15.174;2023-12-07T01:28:56;6.20;;;5.60;;
4553;SDS011;2289;48.316;15.174;2023-12-07T01:31:43;6.93;;;5.93;;
4553;SDS011;2289;48.316;15.174;2023-12-07T01:34:33;7.10;;;6.40;;
4553;SDS011;2289;48.316;15.174;2023-12-07T01:37:20;7.13;;;6.00;;
4553;SDS011;2289;48.316;15.174;2023-12-07T01:40:08;8.43;;;6.63;;
4553;SDS011;2289;48.316;15.174;2023-12-07T01:42:56;6.80;;;6.10;;
4553;SDS011;2289;48.316;15.174;2023-12-07T01:45:45;8.30;;;7.03;;
4553;SDS011;2289;48.316;15.174;2023-12-07T01:48:32;6.50;;;5.90;;
4553;SDS011;2289;48.316;15.174;2023-12-07T01:54:17;8.20;;;7.40;;
4553;SDS011;2289;48.316;15.174;2023-12-07T01:57:05;6.87;;;6.23;;
4553;SDS011;2289;48.316;15.174;2023-12-07T01:59:54;4.87;;;4.47;;
4553;SDS011;2289;48.316;15.174;2023-12-07T02:02:43;7.53;;;5.87;;
4553;SDS011;2289;48.316;15.174;2023-12-07T02:05:31;5.00;;;4.60;;
4553;SDS011;2289;48.316;15.174;2023-12-07T02:08:19;6.80;;;5.23;;
4553;SDS011;2289;48.316;15.174;2023-12-07T02:11:11;6.30;;;5.67;;
4553;SDS011;2289;48.316;15.174;2023-12-07T02:13:59;7.20;;;5.67;;
4553;SDS011;2289;48.316;15.174;2023-12-07T02:16:50;7.80;;;5.93;;
4553;SDS011;2289;48.316;15.174;2023-12-07T02:19:47;6.77;;;5.27;;
4553;SDS011;2289;48.316;15.174;2023-12-07T02:22:38;6.00;;;5.20;;
4553;SDS011;2289;48.316;15.174;2023-12-07T02:25:29;5.27;;;4.77;;
4553;SDS011;2289;48.316;15.174;2023-12-07T02:28:21;6.47;;;5.33;;
4553;SDS011;2289;48.316;15.174;2023-12-07T02:31:09;6.80;;;5.23;;
4553;SDS011;2289;48.316;15.174;2023-12-07T02:33:57;5.37;;;4.80;;
4553;SDS011;2289;48.316;15.174;2023-12-07T02:36:44;7.20;;;5.47;;
4553;SDS011;2289;48.316;15.174;2023-12-07T02:39:33;5.80;;;5.30;;
4553;SDS011;2289;48.316;15.174;2023-12-07T02:42:21;6.30;;;5.13;;
4553;SDS011;2289;48.316;15.174;2023-12-07T02:45:11;7.20;;;5.20;;
4553;SDS011;2289;48.316;15.174;2023-12-07T02:47:59;6.80;;;5.77;;
4553;SDS011;2289;48.316;15.174;2023-12-07T02:50:59;5.43;;;4.87;;
4553;SDS011;2289;48.316;15.174;2023-12-07T02:53:47;7.20;;;5.00;;
4553;SDS011;2289;48.316;15.174;2023-12-07T02:56:34;6.17;;;4.80;;
4553;SDS011;2289;48.316;15.174;2023-12-07T02:59:21;5.43;;;4.93;;
4553;SDS011;2289;48.316;15.174;2023-12-07T03:02:10;7.70;;;5.93;;
4553;SDS011;2289;48.316;15.174;2023-12-07T03:04:58;5.53;;;5.00;;
4553;SDS011;2289;48.316;15.174;2023-12-07T03:07:45;7.30;;;4.90;;
4553;SDS011;2289;48.316;15.174;2023-12-07T03:10:32;7.67;;;6.00;;
4553;SDS011;2289;48.316;15.174;2023-12-07T03:13:19;5.40;;;4.40;;
4553;SDS011;2289;48.316;15.174;2023-12-07T03:16:07;5.17;;;4.43;;
4553;SDS011;2289;48.316;15.174;2023-12-07T03:18:58;6.13;;;5.13;;
4553;SDS011;2289;48.316;15.174;2023-12-07T03:21:48;6.53;;;5.90;;
4553;SDS011;2289;48.316;15.174;2023-12-07T03:24:36;6.63;;;4.93;;
4553;SDS011;2289;48.316;15.174;2023-12-07T03:27:24;7.77;;;5.80;;
4553;SDS011;2289;48.316;15.174;2023-12-07T03:30:11;5.93;;;5.20;;
4553;SDS011;2289;48.316;15.174;2023-12-07T03:32:59;4.83;;;4.33;;
4553;SDS011;2289;48.316;15.174;2023-12-07T03:35:48;6.10;;;5.50;;
4553;SDS011;2289;48.316;15.174;2023-12-07T03:38:35;7.03;;;5.97;;
4553;SDS011;2289;48.316;15.174;2023-12-07T03:41:23;5.90;;;5.30;;
4553;SDS011;2289;48.316;15.174;2023-12-07T03:44:10;5.80;;;5.20;;
4553;SDS011;2289;48.316;15.174;2023-12-07T03:46:58;7.53;;;5.47;;
4553;SDS011;2289;48.316;15.174;2023-12-07T03:49:47;5.73;;;5.20;;
4553;SDS011;2289;48.316;15.174;2023-12-07T03:52:35;6.23;;;4.83;;
4553;SDS011;2289;48.316;15.174;2023-12-07T03:55:23;7.63;;;5.27;;
4553;SDS011;2289;48.316;15.174;2023-12-07T03:58:11;5.77;;;4.90;;
4553;SDS011;2289;48.316;15.174;2023-12-07T04:01:00;5.40;;;4.87;;
4553;SDS011;2289;48.316;15.174;2023-12-07T04:03:48;5.73;;;4.77;;
4553;SDS011;2289;48.316;15.174;2023-12-07T04:06:36;8.00;;;6.07;;
4553;SDS011;2289;48.316;15.174;2023-12-07T04:09:25;6.47;;;5.77;;
4553;SDS011;2289;48.316;15.174;2023-12-07T04:12:12;6.57;;;5.37;;
4553;SDS011;2289;48.316;15.174;2023-12-07T04:15:00;6.83;;;6.13;;
4553;SDS011;2289;48.316;15.174;2023-12-07T04:17:47;6.33;;;5.73;;
4553;SDS011;2289;48.316;15.174;2023-12-07T04:20:35;7.00;;;5.50;;
4553;SDS011;2289;48.316;15.174;2023-12-07T04:23:22;7.10;;;5.93;;
4553;SDS011;2289;48.316;15.174;2023-12-07T04:26:11;8.30;;;6.30;;
4553;SDS011;2289;48.316;15.174;2023-12-07T04:28:58;6.53;;;5.80;;
4553;SDS011;2289;48.316;15.174;2023-12-07T04:31:45;7.23;;;5.60;;
4553;SDS011;2289;48.316;15.174;2023-12-07T04:34:32;7.30;;;6.30;;
4553;SDS011;2289;48.316;15.174;2023-12-07T04:37:20;6.67;;;5.57;;
4553;SDS011;2289;48.316;15.174;2023-12-07T04:40:07;7.00;;;5.80;;
4553;SDS011;2289;48.316;15.174;2023-12-07T04:42:57;6.43;;;5.83;;
4553;SDS011;2289;48.316;15.174;2023-12-07T04:45:45;8.00;;;6.30;;
4553;SDS011;2289;48.316;15.174;2023-12-07T04:48:33;6.77;;;5.90;;
4553;SDS011;2289;48.316;15.174;2023-12-07T04:51:21;8.77;;;6.43;;
4553;SDS011;2289;48.316;15.174;2023-12-07T04:54:08;9.13;;;6.57;;
4553;SDS011;2289;48.316;15.174;2023-12-07T04:57:04;7.63;;;6.50;;
4553;SDS011;2289;48.316;15.174;2023-12-07T04:59:53;8.97;;;6.60;;
4553;SDS011;2289;48.316;15.174;2023-12-07T05:02:41;9.63;;;6.83;;
4553;SDS011;2289;48.316;15.174;2023-12-07T05:05:29;10.90;;;7.63;;
4553;SDS011;2289;48.316;15.174;2023-12-07T05:08:16;9.43;;;7.47;;
4553;SDS011;2289;48.316;15.174;2023-12-07T05:11:03;11.70;;;8.47;;
4553;SDS011;2289;48.316;15.174;2023-12-07T05:13:52;11.43;;;9.40;;
4553;SDS011;2289;48.316;15.174;2023-12-07T05:16:41;11.83;;;9.20;;
4553;SDS011;2289;48.316;15.174;2023-12-07T05:19:29;11.83;;;7.90;;
4553;SDS011;2289;48.316;15.174;2023-12-07T05:22:16;11.17;;;8.83;;
4553;SDS011;2289;48.316;15.174;2023-12-07T05:25:04;12.90;;;8.40;;
4553;SDS011;2289;48.316;15.174;2023-12-07T05:27:52;10.73;;;8.77;;
4553;SDS011;2289;48.316;15.174;2023-12-07T05:30:39;12.47;;;8.23;;
4553;SDS011;2289;48.316;15.174;2023-12-07T05:33:30;7.93;;;6.83;;
4553;SDS011;2289;48.316;15.174;2023-12-07T05:36:18;8.30;;;6.70;;
4553;SDS011;2289;48.316;15.174;2023-12-07T05:39:05;11.13;;;7.43;;
4553;SDS011;2289;48.316;15.174;2023-12-07T05:41:53;10.23;;;7.20;;
4553;SDS011;2289;48.316;15.174;2023-12-07T05:44:39;7.20;;;6.10;;
4553;SDS011;2289;48.316;15.174;2023-12-07T05:47:26;7.73;;;5.87;;
4553;SDS011;2289;48.316;15.174;2023-12-07T05:50:18;6.73;;;6.03;;
4553;SDS011;2289;48.316;15.174;2023-12-07T05:53:05;7.73;;;6.20;;
4553;SDS011;2289;48.316;15.174;2023-12-07T05:55:53;8.60;;;5.40;;
4553;SDS011;2289;48.316;15.174;2023-12-07T05:58:41;6.73;;;6.07;;
4553;SDS011;2289;48.316;15.174;2023-12-07T06:01:29;6.83;;;5.37;;
4553;SDS011;2289;48.316;15.174;2023-12-07T06:04:17;12.70;;;5.50;;
4553;SDS011;2289;48.316;15.174;2023-12-07T06:07:07;6.70;;;5.03;;
4553;SDS011;2289;48.316;15.174;2023-12-07T06:09:54;8.17;;;5.33;;
4553;SDS011;2289;48.316;15.174;2023-12-07T06:12:41;6.93;;;6.10;;
4553;SDS011;2289;48.316;15.174;2023-12-07T06:15:29;6.87;;;5.63;;
4553;SDS011;2289;48.316;15.174;2023-12-07T06:18:16;7.67;;;5.90;;
4553;SDS011;2289;48.316;15.174;2023-12-07T06:21:06;9.37;;;6.10;;
4553;SDS011;2289;48.316;15.174;2023-12-07T06:23:55;8.60;;;5.63;;
4553;SDS011;2289;48.316;15.174;2023-12-07T06:26:43;8.93;;;6.63;;
4553;SDS011;2289;48.316;15.174;2023-12-07T06:29:30;8.80;;;6.23;;
4553;SDS011;2289;48.316;15.174;2023-12-07T06:32:17;9.60;;;6.73;;
4553;SDS011;2289;48.316;15.174;2023-12-07T06:35:05;9.00;;;6.53;;
4553;SDS011;2289;48.316;15.174;2023-12-07T06:37:53;7.00;;;5.43;;
4553;SDS011;2289;48.316;15.174;2023-12-07T06:40:42;11.00;;;7.13;;
4553;SDS011;2289;48.316;15.174;2023-12-07T06:43:30;9.40;;;7.00;;
4553;SDS011;2289;48.316;15.174;2023-12-07T06:45:58;9.50;;;7.40;;
4553;SDS011;2289;48.316;15.174;2023-12-07T06:48:27;8.70;;;6.77;;
4553;SDS011;2289;48.316;15.174;2023-12-07T06:50:59;8.40;;;6.80;;
4553;SDS011;2289;48.316;15.174;2023-12-07T06:53:28;9.23;;;7.10;;
4553;SDS011;2289;48.316;15.174;2023-12-07T06:56:02;9.20;;;7.13;;
4553;SDS011;2289;48.316;15.174;2023-12-07T06:58:31;11.10;;;7.60;;
4553;SDS011;2289;48.316;15.174;2023-12-07T07:00:59;8.70;;;6.53;;
4553;SDS011;2289;48.316;15.174;2023-12-07T07:03:29;9.50;;;7.73;;
4553;SDS011;2289;48.316;15.174;2023-12-07T07:05:58;9.80;;;7.10;;
4553;SDS011;2289;48.316;15.174;2023-12-07T07:08:27;9.93;;;8.77;;
4553;SDS011;2289;48.316;15.174;2023-12-07T07:10:56;10.27;;;7.90;;
4553;SDS011;2289;48.316;15.174;2023-12-07T07:13:26;11.33;;;8.50;;
4553;SDS011;2289;48.316;15.174;2023-12-07T07:15:55;9.83;;;7.60;;
4553;SDS011;2289;48.316;15.174;2023-12-07T07:18:24;14.43;;;8.30;;
4553;SDS011;2289;48.316;15.174;2023-12-07T07:20:55;10.20;;;7.13;;
4553;SDS011;2289;48.316;15.174;2023-12-07T07:23:23;12.70;;;8.37;;
4553;SDS011;2289;48.316;15.174;2023-12-07T07:25:52;8.37;;;6.80;;
4553;SDS011;2289;48.316;15.174;2023-12-07T07:28:22;8.13;;;6.73;;
4553;SDS011;2289;48.316;15.174;2023-12-07T07:30:52;11.90;;;8.43;;
4553;SDS011;2289;48.316;15.174;2023-12-07T07:33:22;8.43;;;7.03;;
4553;SDS011;2289;48.316;15.174;2023-12-07T07:35:51;10.70;;;7.30;;
4553;SDS011;2289;48.316;15.174;2023-12-07T07:38:22;9.17;;;7.10;;
4553;SDS011;2289;48.316;15.174;2023-12-07T07:40:51;10.10;;;7.37;;
4553;SDS011;2289;48.316;15.174;2023-12-07T07:43:19;10.10;;;8.43;;
4553;SDS011;2289;48.316;15.174;2023-12-07T07:45:49;13.07;;;9.20;;
4553;SDS011;2289;48.316;15.174;2023-12-07T07:48:19;11.53;;;7.47;;
4553;SDS011;2289;48.316;15.174;2023-12-07T07:50:49;13.33;;;8.37;;
4553;SDS011;2289;48.316;15.174;2023-12-07T07:53:18;12.10;;;8.83;;
4553;SDS011;2289;48.316;15.174;2023-12-07T07:55:48;11.20;;;8.23;;
4553;SDS011;2289;48.316;15.174;2023-12-07T07:58:17;10.73;;;8.43;;
4553;SDS011;2289;48.316;15.174;2023-12-07T08:00:45;10.13;;;8.77;;
4553;SDS011;2289;48.316;15.174;2023-12-07T08:03:15;15.30;;;9.80;;
4553;SDS011;2289;48.316;15.174;2023-12-07T08:05:45;11.77;;;8.63;;
4553;SDS011;2289;48.316;15.174;2023-12-07T08:08:14;10.13;;;8.97;;
4553;SDS011;2289;48.316;15.174;2023-12-07T08:10:43;13.40;;;8.30;;
4553;SDS011;2289;48.316;15.174;2023-12-07T08:13:22;10.67;;;8.03;;
4553;SDS011;2289;48.316;15.174;2023-12-07T08:15:51;10.17;;;7.13;;
4553;SDS011;2289;48.316;15.174;2023-12-07T08:18:24;11.97;;;8.80;;
4553;SDS011;2289;48.316;15.174;2023-12-07T08:20:56;12.67;;;9.27;;
4553;SDS011;2289;48.316;15.174;2023-12-07T08:23:25;11.83;;;8.73;;
4553;SDS011;2289;48.316;15.174;2023-12-07T08:25:54;11.90;;;8.50;;
4553;SDS011;2289;48.316;15.174;2023-12-07T08:28:24;10.83;;;8.30;;
4553;SDS011;2289;48.316;15.174;2023-12-07T08:30:53;11.30;;;9.47;;
4553;SDS011;2289;48.316;15.174;2023-12-07T08:33:21;10.97;;;8.87;;
4553;SDS011;2289;48.316;15.174;2023-12-07T08:35:51;10.43;;;8.00;;
4553;SDS011;2289;48.316;15.174;2023-12-07T08:38:23;11.00;;;8.43;;
4553;SDS011;2289;48.316;15.174;2023-12-07T08:40:52;12.23;;;8.83;;
4553;SDS011;2289;48.316;15.174;2023-12-07T08:43:21;12.00;;;8.40;;
4553;SDS011;2289;48.316;15.174;2023-12-07T08:45:51;10.50;;;8.60;;
4553;SDS011;2289;48.316;15.174;2023-12-07T08:48:27;11.77;;;7.77;;
4553;SDS011;2289;48.316;15.174;2023-12-07T08:50:57;15.70;;;9.10;;
4553;SDS011;2289;48.316;15.174;2023-12-07T08:53:27;11.07;;;8.13;;
4553;SDS011;2289;48.316;15.174;2023-12-07T08:55:56;11.60;;;8.60;;
4553;SDS011;2289;48.316;15.174;2023-12-07T08:58:26;10.77;;;8.80;;
4553;SDS011;2289;48.316;15.174;2023-12-07T09:00:56;11.33;;;9.00;;
4553;SDS011;2289;48.316;15.174;2023-12-07T09:03:24;10.20;;;7.87;;
4553;SDS011;2289;48.316;15.174;2023-12-07T09:06:00;8.50;;;7.47;;
4553;SDS011;2289;48.316;15.174;2023-12-07T09:08:31;9.27;;;8.20;;
4553;SDS011;2289;48.316;15.174;2023-12-07T09:10:59;10.93;;;9.33;;
4553;SDS011;2289;48.316;15.174;2023-12-07T09:13:28;11.23;;;8.93;;
4553;SDS011;2289;48.316;15.174;2023-12-07T09:15:57;10.23;;;9.00;;
4553;SDS011;2289;48.316;15.174;2023-12-07T09:18:25;9.97;;;7.83;;
4553;SDS011;2289;48.316;15.174;2023-12-07T09:20:55;12.40;;;9.97;;
4553;SDS011;2289;48.316;15.174;2023-12-07T09:23:24;11.03;;;9.27;;
4553;SDS011;2289;48.316;15.174;2023-12-07T09:25:54;10.83;;;8.27;;
4553;SDS011;2289;48.316;15.174;2023-12-07T09:28:23;10.63;;;9.07;;
4553;SDS011;2289;48.316;15.174;2023-12-07T09:30:51;11.80;;;9.17;;
4553;SDS011;2289;48.316;15.174;2023-12-07T09:33:21;12.93;;;8.40;;
4553;SDS011;2289;48.316;15.174;2023-12-07T09:35:50;15.30;;;9.10;;
4553;SDS011;2289;48.316;15.174;2023-12-07T09:38:19;13.30;;;10.70;;
4553;SDS011;2289;48.316;15.174;2023-12-07T09:40:52;16.13;;;11.23;;
4553;SDS011;2289;48.316;15.174;2023-12-07T09:43:22;10.70;;;8.83;;
4553;SDS011;2289;48.316;15.174;2023-12-07T09:45:51;11.83;;;8.47;;
4553;SDS011;2289;48.316;15.174;2023-12-07T09:48:23;15.03;;;10.50;;
4553;SDS011;2289;48.316;15.174;2023-12-07T09:50:53;12.00;;;9.47;;
4553;SDS011;2289;48.316;15.174;2023-12-07T09:53:24;12.67;;;9.30;;
4553;SDS011;2289;48.316;15.174;2023-12-07T09:55:53;10.00;;;8.17;;
4553;SDS011;2289;48.316;15.174;2023-12-07T09:58:22;13.87;;;10.07;;
4553;SDS011;2289;48.316;15.174;2023-12-07T10:01:04;10.60;;;8.60;;
4553;SDS011;2289;48.316;15.174;2023-12-07T10:03:33;11.33;;;9.27;;
4553;SDS011;2289;48.316;15.174;2023-12-07T10:06:03;13.23;;;9.57;;
4553;SDS011;2289;48.316;15.174;2023-12-07T10:08:33;13.10;;;8.80;;
4553;SDS011;2289;48.316;15.174;2023-12-07T10:11:05;12.37;;;9.50;;
4553;SDS011;2289;48.316;15.174;2023-12-07T10:13:37;11.40;;;8.40;;
4553;SDS011;2289;48.316;15.174;2023-12-07T10:16:09;11.63;;;8.37;;
4553;SDS011;2289;48.316;15.174;2023-12-07T10:18:40;12.47;;;9.40;;
4553;SDS011;2289;48.316;15.174;2023-12-07T10:21:11;12.77;;;9.60;;
4553;SDS011;2289;48.316;15.174;2023-12-07T10:23:44;12.20;;;8.63;;
4553;SDS011;2289;48.316;15.174;2023-12-07T10:26:16;11.20;;;9.00;;
4553;SDS011;2289;48.316;15.174;2023-12-07T10:28:50;10.07;;;8.20;;
4553;SDS011;2289;48.316;15.174;2023-12-07T10:31:22;12.47;;;8.37;;
4553;SDS011;2289;48.316;15.174;2023-12-07T10:33:52;9.03;;;7.33;;
4553;SDS011;2289;48.316;15.174;2023-12-07T10:36:21;10.07;;;7.83;;
4553;SDS011;2289;48.316;15.174;2023-12-07T10:38:50;10.43;;;8.00;;
4553;SDS011;2289;48.316;15.174;2023-12-07T10:41:19;11.40;;;8.93;;
4553;SDS011;2289;48.316;15.174;2023-12-07T10:43:51;9.43;;;8.40;;
4553;SDS011;2289;48.316;15.174;2023-12-07T10:46:21;9.13;;;7.90;;
4553;SDS011;2289;48.316;15.174;2023-12-07T10:48:51;9.67;;;7.70;;
4553;SDS011;2289;48.316;15.174;2023-12-07T10:51:29;10.23;;;7.73;;
4553;SDS011;2289;48.316;15.174;2023-12-07T10:54:06;11.10;;;8.53;;
4553;SDS011;2289;48.316;15.174;2023-12-07T10:56:38;9.30;;;8.27;;
4553;SDS011;2289;48.316;15.174;2023-12-07T10:59:10;12.20;;;8.87;;
4553;SDS011;2289;48.316;15.174;2023-12-07T11:01:52;11.50;;;8.63;;
4553;SDS011;2289;48.316;15.174;2023-12-07T11:04:21;12.60;;;9.80;;
4553;SDS011;2289;48.316;15.174;2023-12-07T11:06:51;11.53;;;8.20;;
4553;SDS011;2289;48.316;15.174;2023-12-07T11:09:25;11.87;;;8.17;;
4553;SDS011;2289;48.316;15.174;2023-12-07T11:11:58;12.53;;;8.63;;
4553;SDS011;2289;48.316;15.174;2023-12-07T11:14:32;9.87;;;8.17;;
4553;SDS011;2289;48.316;15.174;2023-12-07T11:17:01;16.63;;;9.47;;
4553;SDS011;2289;48.316;15.174;2023-12-07T11:19:45;12.30;;;9.43;;
4553;SDS011;2289;48.316;15.174;2023-12-07T11:22:15;12.13;;;8.07;;
4553;SDS011;2289;48.316;15.174;2023-12-07T11:24:53;13.13;;;9.57;;
4553;SDS011;2289;48.316;15.174;2023-12-07T11:27:24;12.53;;;9.07;;
4553;SDS011;2289;48.316;15.174;2023-12-07T11:29:55;29.13;;;18.40;;
4553;SDS011;2289;48.316;15.174;2023-12-07T11:32:27;22.10;;;14.70;;
4553;SDS011;2289;48.316;15.174;2023-12-07T11:35:03;14.90;;;10.40;;
4553;SDS011;2289;48.316;15.174;2023-12-07T11:38:04;13.47;;;9.67;;
4553;SDS011;2289;48.316;15.174;2023-12-07T11:40:35;60.23;;;37.87;;
4553;SDS011;2289;48.316;15.174;2023-12-07T11:43:05;51.57;;;29.50;;
4553;SDS011;2289;48.316;15.174;2023-12-07T11:45:40;35.97;;;23.50;;
4553;SDS011;2289;48.316;15.174;2023-12-07T11:48:16;19.37;;;13.23;;
4553;SDS011;2289;48.316;15.174;2023-12-07T11:50:54;18.63;;;12.20;;
4553;SDS011;2289;48.316;15.174;2023-12-07T11:53:25;16.47;;;11.63;;
4553;SDS011;2289;48.316;15.174;2023-12-07T11:55:56;14.20;;;9.73;;
4553;SDS011;2289;48.316;15.174;2023-12-07T11:58:26;19.23;;;13.53;;
4553;SDS011;2289;48.316;15.174;2023-12-07T12:00:57;14.13;;;11.47;;
4553;SDS011;2289;48.316;15.174;2023-12-07T12:03:29;12.57;;;9.43;;
4553;SDS011;2289;48.316;15.174;2023-12-07T12:05:59;13.53;;;10.20;;
4553;SDS011;2289;48.316;15.174;2023-12-07T12:08:30;11.40;;;8.73;;
4553;SDS011;2289;48.316;15.174;2023-12-07T12:10:59;14.00;;;9.43;;
4553;SDS011;2289;48.316;15.174;2023-12-07T12:13:28;13.10;;;9.17;;
4553;SDS011;2289;48.316;15.174;2023-12-07T12:15:59;14.93;;;12.60;;
4553;SDS011;2289;48.316;15.174;2023-12-07T12:18:32;15.53;;;11.70;;
4553;SDS011;2289;48.316;15.174;2023-12-07T12:21:02;11.63;;;8.30;;
4553;SDS011;2289;48.316;15.174;2023-12-07T12:23:31;10.10;;;7.90;;
4553;SDS011;2289;48.316;15.174;2023-12-07T12:26:00;11.30;;;8.20;;
4553;SDS011;2289;48.316;15.174;2023-12-07T12:28:30;14.13;;;8.70;;
4553;SDS011;2289;48.316;15.174;2023-12-07T12:31:01;11.43;;;8.87;;
4553;SDS011;2289;48.316;15.174;2023-12-07T12:33:30;11.90;;;8.00;;
4553;SDS011;2289;48.316;15.174;2023-12-07T12:36:01;13.47;;;9.40;;
4553;SDS011;2289;48.316;15.174;2023-12-07T12:38:31;10.63;;;7.87;;
4553;SDS011;2289;48.316;15.174;2023-12-07T12:41:08;11.23;;;6.77;;
4553;SDS011;2289;48.316;15.174;2023-12-07T12:43:38;13.27;;;8.37;;
4553;SDS011;2289;48.316;15.174;2023-12-07T12:46:09;11.00;;;9.80;;
4553;SDS011;2289;48.316;15.174;2023-12-07T12:48:52;15.53;;;10.87;;
4553;SDS011;2289;48.316;15.174;2023-12-07T12:51:24;15.80;;;10.50;;
4553;SDS011;2289;48.316;15.174;2023-12-07T12:53:54;12.63;;;8.93;;
4553;SDS011;2289;48.316;15.174;2023-12-07T12:56:26;12.40;;;8.57;;
4553;SDS011;2289;48.316;15.174;2023-12-07T12:58:55;11.50;;;8.53;;
4553;SDS011;2289;48.316;15.174;2023-12-07T13:01:32;10.83;;;8.23;;
4553;SDS011;2289;48.316;15.174;2023-12-07T13:04:02;28.00;;;9.80;;
4553;SDS011;2289;48.316;15.174;2023-12-07T13:06:31;12.37;;;9.10;;
4553;SDS011;2289;48.316;15.174;2023-12-07T13:09:00;24.43;;;10.30;;
4553;SDS011;2289;48.316;15.174;2023-12-07T13:11:29;18.83;;;13.97;;
4553;SDS011;2289;48.316;15.174;2023-12-07T13:13:58;17.57;;;11.83;;
4553;SDS011;2289;48.316;15.174;2023-12-07T13:16:35;13.13;;;10.30;;
4553;SDS011;2289;48.316;15.174;2023-12-07T13:19:04;14.00;;;10.17;;
4553;SDS011;2289;48.316;15.174;2023-12-07T13:21:37;12.87;;;9.73;;
4553;SDS011;2289;48.316;15.174;2023-12-07T13:24:06;9.67;;;7.10;;
4553;SDS011;2289;48.316;15.174;2023-12-07T13:26:40;13.13;;;9.00;;
4553;SDS011;2289;48.316;15.174;2023-12-07T13:29:09;9.40;;;8.37;;
4553;SDS011;2289;48.316;15.174;2023-12-07T13:31:49;9.60;;;8.10;;
4553;SDS011;2289;48.316;15.174;2023-12-07T13:34:17;11.37;;;9.10;;
4553;SDS011;2289;48.316;15.174;2023-12-07T13:36:50;11.47;;;9.00;;
4553;SDS011;2289;48.316;15.174;2023-12-07T13:39:19;11.27;;;8.00;;
4553;SDS011;2289;48.316;15.174;2023-12-07T13:41:57;11.40;;;9.20;;
4553;SDS011;2289;48.316;15.174;2023-12-07T13:44:28;15.83;;;9.47;;
4553;SDS011;2289;48.316;15.174;2023-12-07T13:47:01;10.73;;;8.33;;
4553;SDS011;2289;48.316;15.174;2023-12-07T13:49:30;11.70;;;8.87;;
4553;SDS011;2289;48.316;15.174;2023-12-07T13:52:01;11.03;;;8.47;;
4553;SDS011;2289;48.316;15.174;2023-12-07T13:54:38;13.50;;;8.83;;
4553;SDS011;2289;48.316;15.174;2023-12-07T13:57:20;10.80;;;8.50;;
4553;SDS011;2289;48.316;15.174;2023-12-07T13:59:52;14.93;;;8.50;;
4553;SDS011;2289;48.316;15.174;2023-12-07T14:02:22;12.03;;;9.60;;
4553;SDS011;2289;48.316;15.174;2023-12-07T14:04:53;12.60;;;9.17;;
4553;SDS011;2289;48.316;15.174;2023-12-07T14:07:22;12.80;;;9.20;;
4553;SDS011;2289;48.316;15.174;2023-12-07T14:09:51;12.67;;;8.90;;
4553;SDS011;2289;48.316;15.174;2023-12-07T14:12:25;79.43;;;54.27;;
4553;SDS011;2289;48.316;15.174;2023-12-07T14:14:55;91.10;;;64.13;;
4553;SDS011;2289;48.316;15.174;2023-12-07T14:17:26;60.67;;;41.00;;
4553;SDS011;2289;48.316;15.174;2023-12-07T14:20:10;19.83;;;15.00;;
4553;SDS011;2289;48.316;15.174;2023-12-07T14:22:59;19.57;;;9.53;;
4553;SDS011;2289;48.316;15.174;2023-12-07T14:25:31;12.53;;;8.20;;
4553;SDS011;2289;48.316;15.174;2023-12-07T14:28:00;10.67;;;7.10;;
4553;SDS011;2289;48.316;15.174;2023-12-07T14:30:29;10.10;;;7.83;;
4553;SDS011;2289;48.316;15.174;2023-12-07T14:32:59;11.30;;;7.90;;
4553;SDS011;2289;48.316;15.174;2023-12-07T14:35:28;10.03;;;7.80;;
4553;SDS011;2289;48.316;15.174;2023-12-07T14:37:58;10.67;;;8.73;;
4553;SDS011;2289;48.316;15.174;2023-12-07T14:40:27;11.13;;;8.20;;
4553;SDS011;2289;48.316;15.174;2023-12-07T14:42:56;11.20;;;8.10;;
4553;SDS011;2289;48.316;15.174;2023-12-07T14:45:25;10.63;;;6.87;;
4553;SDS011;2289;48.316;15.174;2023-12-07T14:47:55;11.70;;;7.80;;
4553;SDS011;2289;48.316;15.174;2023-12-07T14:50:29;11.70;;;8.93;;
4553;SDS011;2289;48.316;15.174;2023-12-07T14:52:58;11.43;;;8.13;;
4553;SDS011;2289;48.316;15.174;2023-12-07T14:55:27;15.40;;;9.90;;
4553;SDS011;2289;48.316;15.174;2023-12-07T14:57:56;15.70;;;9.97;;
4553;SDS011;2289;48.316;15.174;2023-12-07T15:00:25;15.00;;;10.60;;
4553;SDS011;2289;48.316;15.174;2023-12-07T15:02:56;18.73;;;11.90;;
4553;SDS011;2289;48.316;15.174;2023-12-07T15:05:25;17.27;;;11.27;;
4553;SDS011;2289;48.316;15.174;2023-12-07T15:07:56;17.67;;;11.17;;
4553;SDS011;2289;48.316;15.174;2023-12-07T15:10:24;18.93;;;11.83;;
4553;SDS011;2289;48.316;15.174;2023-12-07T15:12:54;200.67;;;60.77;;
4553;SDS011;2289;48.316;15.174;2023-12-07T15:15:22;56.53;;;29.63;;
4553;SDS011;2289;48.316;15.174;2023-12-07T15:17:52;50.40;;;25.57;;
4553;SDS011;2289;48.316;15.174;2023-12-07T15:20:22;51.27;;;28.10;;
4553;SDS011;2289;48.316;15.174;2023-12-07T15:22:52;66.50;;;35.90;;
4553;SDS011;2289;48.316;15.174;2023-12-07T15:25:22;32.07;;;17.10;;
4553;SDS011;2289;48.316;15.174;2023-12-07T15:27:52;43.77;;;22.23;;
4553;SDS011;2289;48.316;15.174;2023-12-07T15:30:20;35.00;;;20.50;;
4553;SDS011;2289;48.316;15.174;2023-12-07T15:32:50;28.23;;;18.93;;
4553;SDS011;2289;48.316;15.174;2023-12-07T15:35:19;22.13;;;13.37;;
4553;SDS011;2289;48.316;15.174;2023-12-07T15:37:47;18.33;;;11.70;;
4553;SDS011;2289;48.316;15.174;2023-12-07T15:40:16;15.83;;;11.30;;
4553;SDS011;2289;48.316;15.174;2023-12-07T15:42:47;12.53;;;10.20;;
4553;SDS011;2289;48.316;15.174;2023-12-07T15:45:16;15.37;;;10.93;;
4553;SDS011;2289;48.316;15.174;2023-12-07T15:47:45;19.93;;;12.60;;
4553;SDS011;2289;48.316;15.174;2023-12-07T15:50:14;20.10;;;13.50;;
4553;SDS011;2289;48.316;15.174;2023-12-07T15:52:43;26.73;;;16.50;;
4553;SDS011;2289;48.316;15.174;2023-12-07T15:55:12;94.00;;;44.97;;
4553;SDS011;2289;48.316;15.174;2023-12-07T15:57:42;94.53;;;44.30;;